Powell, WY (82435)

8:10 PM MDT on September 23, 2014 (GMT -0600)
Crestview Estates | Change Station
CLOSE
Current Station
Personal Weather Station
Location: Powell, WY
Elevation: 4507 ft
Nearby Weather Stations

Elev 4507 ft 44.75 °N, 108.82 °W | Updated 1 second ago

Clear
Clear
67.6 °F
Feels Like 67.6 °F
N
0.0
Wind Variable Wind from East
Gusts 0.0 mph

Today
High -- | Low -- °F
--% Chance of Precip.
Yesterday
High -- | Low -- °F
Precip. -- in
7:03 AM 7:10 PM
Waning Crescent, 0% visible
Pressure 30.05 in
Visibility 10.0 miles
Clouds Clear
Dew Point 49 °F
Humidity 52%
Rainfall 0.00 in
Snow Depth 0 in , 0 in , 0 in
UV 0 out of 12
Pollen 4.90 out of 12
Air Quality Not available.
Flu Activity Not available.
METAR KCOD 230235Z AUTO 24010G17KT 10SM CLR 19/06 A3005 RMK AO1

More Conditions Fewer Conditions

Pressure 30.05 in
Visibility 10.0 miles
Clouds Clear
Dew Point 49 °F
Humidity 52%
Rainfall 0.00 in
Snow Depth 0 in , 0 in , 0 in
UV 0 out of 12
Pollen 4.90 out of 12
Air Quality Not available.
Flu Activity Not available.
METAR KCOD 230235Z AUTO 24010G17KT 10SM CLR 19/06 A3005 RMK AO1

More Conditions Fewer Conditions

10-Day Weather Forecast

Almanac

Astronomy

Sep. 23, 2014 Rise Set
Actual Time 7:03 AM MDT 7:10 PM MDT
Civil Twilight 6:34 AM MDT 7:39 PM MDT
Nautical Twilight 6:00 AM MDT 8:14 PM MDT
Astronomical Twilight 5:25 AM MDT 8:49 PM MDT
Moon 6:30 AM MDT (9/23) 6:50 PM MDT (9/23)
Length of Visible Light 13h 05m
Length of Day
12h 07m
Tomorrow will be 3m 5s shorter.
Waning Crescent, 0% of the Moon is Illuminated
Today
Waning Crescent
Sep 24
New
Oct 1
First Quarter
Oct 8
Full
Oct 15
Last Quarter

Today's Extremes

State Highs State Lows

Community

WunderPhotos

Upload Photos

1,755,853 photos uploaded!

Nearby

Snow Depth

Station Depth Elevation
Sand Lake 0 in 10050 ft
Lewis Lake Divide 0 in 7850 ft
Salt River Summit 0 in 7600 ft
Evening Star 0 in 9200 ft
Brooklyn Lake 0 in 10220 ft

Earthquake Activity

City Distance Mag. Time & Date
No recent earthquake activity has been reported nearby.
Minimum magnitude displayed is 2.5.

Coastal Water Temperatures

Place Temperature
No Stations Reporting

Nearby Weather Stations